sensor_id;sensor_type;location;lat;lon;timestamp;P1;durP1;ratioP1;P2;durP2;ratioP2
51907;SDS011;39320;53.214;6.556;2022-09-09T12:33:42;3.20;;;1.20;;
51907;SDS011;39320;53.214;6.556;2022-09-09T12:36:18;4.88;;;1.67;;
51907;SDS011;39320;53.214;6.556;2022-09-09T12:38:48;4.07;;;1.40;;
51907;SDS011;39320;53.214;6.556;2022-09-09T12:41:20;3.05;;;1.48;;
51907;SDS011;39320;53.214;6.556;2022-09-09T12:44:08;2.95;;;1.30;;
51907;SDS011;39320;53.214;6.556;2022-09-09T12:46:42;4.57;;;1.98;;
51907;SDS011;39320;53.214;6.556;2022-09-09T12:54:45;5.30;;;1.65;;
51907;SDS011;39320;53.214;6.556;2022-09-09T12:57:12;2.58;;;1.50;;
51907;SDS011;39320;53.214;6.556;2022-09-09T12:59:40;3.75;;;1.60;;
51907;SDS011;39320;53.214;6.556;2022-09-09T13:02:21;4.25;;;1.60;;
51907;SDS011;39320;53.214;6.556;2022-09-09T13:04:53;4.35;;;1.40;;
51907;SDS011;39320;53.214;6.556;2022-09-09T13:07:19;7.22;;;1.77;;
51907;SDS011;39320;53.214;6.556;2022-09-09T13:09:47;3.90;;;1.35;;
51907;SDS011;39320;53.214;6.556;2022-09-09T13:12:15;5.03;;;1.50;;
51907;SDS011;39320;53.214;6.556;2022-09-09T13:14:44;4.70;;;1.70;;
51907;SDS011;39320;53.214;6.556;2022-09-09T13:17:22;4.85;;;1.60;;
51907;SDS011;39320;53.214;6.556;2022-09-09T13:19:50;4.03;;;1.83;;
51907;SDS011;39320;53.214;6.556;2022-09-09T13:24:58;6.97;;;2.03;;
51907;SDS011;39320;53.214;6.556;2022-09-09T13:27:40;5.22;;;1.80;;
51907;SDS011;39320;53.214;6.556;2022-09-09T13:32:59;5.10;;;1.83;;
51907;SDS011;39320;53.214;6.556;2022-09-09T13:35:29;2.92;;;1.50;;
51907;SDS011;39320;53.214;6.556;2022-09-09T13:37:55;5.28;;;1.77;;
51907;SDS011;39320;53.214;6.556;2022-09-09T13:40:23;5.93;;;1.90;;
51907;SDS011;39320;53.214;6.556;2022-09-09T13:42:55;3.95;;;1.85;;
51907;SDS011;39320;53.214;6.556;2022-09-09T13:45:22;6.55;;;2.53;;
51907;SDS011;39320;53.214;6.556;2022-09-09T13:47:51;5.55;;;2.10;;
51907;SDS011;39320;53.214;6.556;2022-09-09T13:50:27;4.63;;;1.85;;
51907;SDS011;39320;53.214;6.556;2022-09-09T13:52:58;2.78;;;1.50;;
51907;SDS011;39320;53.214;6.556;2022-09-09T13:55:25;3.30;;;1.20;;
51907;SDS011;39320;53.214;6.556;2022-09-09T13:57:59;4.13;;;1.40;;
51907;SDS011;39320;53.214;6.556;2022-09-09T14:00:28;2.38;;;1.40;;
51907;SDS011;39320;53.214;6.556;2022-09-09T14:02:55;2.92;;;1.42;;
51907;SDS011;39320;53.214;6.556;2022-09-09T14:05:22;1.90;;;1.00;;
51907;SDS011;39320;53.214;6.556;2022-09-09T14:07:48;3.97;;;1.00;;
51907;SDS011;39320;53.214;6.556;2022-09-09T14:10:14;2.22;;;0.80;;
51907;SDS011;39320;53.214;6.556;2022-09-09T14:12:40;2.92;;;1.00;;
51907;SDS011;39320;53.214;6.556;2022-09-09T14:15:07;4.70;;;1.05;;
51907;SDS011;39320;53.214;6.556;2022-09-09T14:17:35;3.45;;;1.17;;
51907;SDS011;39320;53.214;6.556;2022-09-09T14:20:02;3.25;;;0.88;;
51907;SDS011;39320;53.214;6.556;2022-09-09T14:22:30;2.40;;;1.20;;
51907;SDS011;39320;53.214;6.556;2022-09-09T14:24:56;3.20;;;1.20;;
51907;SDS011;39320;53.214;6.556;2022-09-09T14:27:22;2.78;;;1.10;;
51907;SDS011;39320;53.214;6.556;2022-09-09T14:29:50;3.50;;;0.95;;
51907;SDS011;39320;53.214;6.556;2022-09-09T14:32:16;3.20;;;0.70;;
51907;SDS011;39320;53.214;6.556;2022-09-09T14:34:42;2.38;;;1.00;;
51907;SDS011;39320;53.214;6.556;2022-09-09T14:37:08;1.80;;;0.75;;
51907;SDS011;39320;53.214;6.556;2022-09-09T14:39:33;4.05;;;1.08;;
51907;SDS011;39320;53.214;6.556;2022-09-09T14:41:59;1.67;;;0.93;;
51907;SDS011;39320;53.214;6.556;2022-09-09T14:44:25;3.33;;;1.05;;
51907;SDS011;39320;53.214;6.556;2022-09-09T14:46:51;1.70;;;0.80;;
51907;SDS011;39320;53.214;6.556;2022-09-09T14:49:18;1.48;;;0.65;;
51907;SDS011;39320;53.214;6.556;2022-09-09T14:51:44;2.33;;;0.57;;
51907;SDS011;39320;53.214;6.556;2022-09-09T14:54:09;1.80;;;0.60;;
51907;SDS011;39320;53.214;6.556;2022-09-09T14:56:35;1.38;;;0.40;;
51907;SDS011;39320;53.214;6.556;2022-09-09T14:59:01;3.05;;;0.40;;
51907;SDS011;39320;53.214;6.556;2022-09-09T15:01:28;1.35;;;0.55;;
51907;SDS011;39320;53.214;6.556;2022-09-09T15:04:02;2.08;;;0.55;;
51907;SDS011;39320;53.214;6.556;2022-09-09T15:06:31;1.10;;;0.40;;
51907;SDS011;39320;53.214;6.556;2022-09-09T15:08:59;2.30;;;0.50;;
51907;SDS011;39320;53.214;6.556;2022-09-09T15:11:26;1.92;;;0.43;;
51907;SDS011;39320;53.214;6.556;2022-09-09T15:13:55;0.77;;;0.47;;
51907;SDS011;39320;53.214;6.556;2022-09-09T15:16:23;3.83;;;0.75;;
51907;SDS011;39320;53.214;6.556;2022-09-09T15:18:52;2.33;;;0.75;;
51907;SDS011;39320;53.214;6.556;2022-09-09T15:21:20;3.97;;;1.00;;
51907;SDS011;39320;53.214;6.556;2022-09-09T15:23:48;2.38;;;1.02;;
51907;SDS011;39320;53.214;6.556;2022-09-09T15:26:14;1.92;;;1.05;;
51907;SDS011;39320;53.214;6.556;2022-09-09T15:28:41;2.70;;;1.20;;
51907;SDS011;39320;53.214;6.556;2022-09-09T15:31:12;3.10;;;1.02;;
51907;SDS011;39320;53.214;6.556;2022-09-09T15:33:39;3.22;;;0.95;;
51907;SDS011;39320;53.214;6.556;2022-09-09T15:36:28;2.90;;;0.93;;
51907;SDS011;39320;53.214;6.556;2022-09-09T15:41:29;2.42;;;0.85;;
51907;SDS011;39320;53.214;6.556;2022-09-09T15:43:56;2.53;;;0.90;;
51907;SDS011;39320;53.214;6.556;2022-09-09T15:46:24;2.38;;;1.30;;
51907;SDS011;39320;53.214;6.556;2022-09-09T15:48:53;3.17;;;1.23;;
51907;SDS011;39320;53.214;6.556;2022-09-09T15:51:23;2.50;;;1.10;;
51907;SDS011;39320;53.214;6.556;2022-09-09T15:53:55;3.72;;;1.45;;
51907;SDS011;39320;53.214;6.556;2022-09-09T15:56:22;2.58;;;1.00;;
51907;SDS011;39320;53.214;6.556;2022-09-09T15:58:48;3.63;;;1.27;;
51907;SDS011;39320;53.214;6.556;2022-09-09T16:01:14;2.92;;;0.90;;
51907;SDS011;39320;53.214;6.556;2022-09-09T16:03:42;2.70;;;1.02;;
51907;SDS011;39320;53.214;6.556;2022-09-09T16:06:08;2.45;;;0.85;;
51907;SDS011;39320;53.214;6.556;2022-09-09T16:08:35;2.17;;;0.90;;
51907;SDS011;39320;53.214;6.556;2022-09-09T16:13:38;1.45;;;0.75;;
51907;SDS011;39320;53.214;6.556;2022-09-09T16:16:04;2.33;;;0.63;;
51907;SDS011;39320;53.214;6.556;2022-09-09T16:18:41;2.40;;;0.90;;
51907;SDS011;39320;53.214;6.556;2022-09-09T16:21:17;1.58;;;0.77;;
51907;SDS011;39320;53.214;6.556;2022-09-09T16:23:45;2.63;;;0.90;;
51907;SDS011;39320;53.214;6.556;2022-09-09T16:26:11;1.98;;;0.77;;
51907;SDS011;39320;53.214;6.556;2022-09-09T16:28:38;1.58;;;0.68;;
51907;SDS011;39320;53.214;6.556;2022-09-09T16:31:08;2.00;;;0.85;;
51907;SDS011;39320;53.214;6.556;2022-09-09T16:33:36;2.92;;;1.30;;
51907;SDS011;39320;53.214;6.556;2022-09-09T16:36:06;1.23;;;0.63;;
51907;SDS011;39320;53.214;6.556;2022-09-09T16:38:33;2.30;;;0.90;;
51907;SDS011;39320;53.214;6.556;2022-09-09T16:41:01;5.45;;;1.27;;
51907;SDS011;39320;53.214;6.556;2022-09-09T16:43:27;4.78;;;3.45;;
51907;SDS011;39320;53.214;6.556;2022-09-09T16:45:53;5.97;;;4.00;;
51907;SDS011;39320;53.214;6.556;2022-09-09T16:48:19;3.08;;;1.75;;
51907;SDS011;39320;53.214;6.556;2022-09-09T16:50:45;2.40;;;1.23;;
51907;SDS011;39320;53.214;6.556;2022-09-09T16:53:11;2.03;;;1.23;;
51907;SDS011;39320;53.214;6.556;2022-09-09T16:55:40;3.10;;;1.33;;
51907;SDS011;39320;53.214;6.556;2022-09-09T16:58:07;1.95;;;1.25;;
51907;SDS011;39320;53.214;6.556;2022-09-09T17:00:35;2.40;;;1.23;;
51907;SDS011;39320;53.214;6.556;2022-09-09T17:03:01;2.95;;;1.02;;
51907;SDS011;39320;53.214;6.556;2022-09-09T17:05:27;3.22;;;1.20;;
51907;SDS011;39320;53.214;6.556;2022-09-09T17:07:54;2.25;;;0.93;;
51907;SDS011;39320;53.214;6.556;2022-09-09T17:10:23;2.47;;;1.20;;
51907;SDS011;39320;53.214;6.556;2022-09-09T17:12:50;2.75;;;1.10;;
51907;SDS011;39320;53.214;6.556;2022-09-09T17:15:16;3.22;;;1.27;;
51907;SDS011;39320;53.214;6.556;2022-09-09T17:17:43;6.07;;;2.25;;
51907;SDS011;39320;53.214;6.556;2022-09-09T17:20:10;3.00;;;2.10;;
51907;SDS011;39320;53.214;6.556;2022-09-09T17:22:36;3.88;;;1.65;;
51907;SDS011;39320;53.214;6.556;2022-09-09T17:25:02;2.15;;;1.20;;
51907;SDS011;39320;53.214;6.556;2022-09-09T17:27:29;3.35;;;1.20;;
51907;SDS011;39320;53.214;6.556;2022-09-09T17:29:58;3.25;;;1.50;;
51907;SDS011;39320;53.214;6.556;2022-09-09T17:32:24;2.53;;;1.00;;
51907;SDS011;39320;53.214;6.556;2022-09-09T17:34:51;2.60;;;1.40;;
51907;SDS011;39320;53.214;6.556;2022-09-09T17:37:18;3.17;;;1.05;;
51907;SDS011;39320;53.214;6.556;2022-09-09T17:39:43;2.17;;;1.10;;
51907;SDS011;39320;53.214;6.556;2022-09-09T17:42:09;3.45;;;1.27;;
51907;SDS011;39320;53.214;6.556;2022-09-09T17:44:35;2.17;;;0.95;;
51907;SDS011;39320;53.214;6.556;2022-09-09T17:47:01;4.82;;;1.65;;
51907;SDS011;39320;53.214;6.556;2022-09-09T17:49:29;5.07;;;1.50;;
51907;SDS011;39320;53.214;6.556;2022-09-09T17:51:55;3.85;;;1.13;;
51907;SDS011;39320;53.214;6.556;2022-09-09T17:54:21;2.70;;;1.40;;
51907;SDS011;39320;53.214;6.556;2022-09-09T17:56:47;3.53;;;1.30;;
51907;SDS011;39320;53.214;6.556;2022-09-09T17:59:14;4.30;;;1.45;;
51907;SDS011;39320;53.214;6.556;2022-09-09T18:01:42;2.63;;;1.67;;
51907;SDS011;39320;53.214;6.556;2022-09-09T18:04:10;1.92;;;1.30;;
51907;SDS011;39320;53.214;6.556;2022-09-09T18:06:39;1.83;;;1.20;;
51907;SDS011;39320;53.214;6.556;2022-09-09T18:09:11;3.17;;;1.23;;
51907;SDS011;39320;53.214;6.556;2022-09-09T18:11:43;2.50;;;1.70;;
51907;SDS011;39320;53.214;6.556;2022-09-09T18:14:15;3.97;;;1.50;;
51907;SDS011;39320;53.214;6.556;2022-09-09T18:16:46;3.28;;;1.70;;
51907;SDS011;39320;53.214;6.556;2022-09-09T18:19:15;2.78;;;1.20;;
51907;SDS011;39320;53.214;6.556;2022-09-09T18:21:46;3.08;;;1.55;;
51907;SDS011;39320;53.214;6.556;2022-09-09T18:24:13;2.80;;;1.40;;
51907;SDS011;39320;53.214;6.556;2022-09-09T18:26:41;1.80;;;1.50;;
51907;SDS011;39320;53.214;6.556;2022-09-09T18:29:10;3.50;;;1.73;;
51907;SDS011;39320;53.214;6.556;2022-09-09T18:31:39;3.97;;;1.70;;
51907;SDS011;39320;53.214;6.556;2022-09-09T18:34:07;2.40;;;1.58;;
51907;SDS011;39320;53.214;6.556;2022-09-09T18:36:36;3.58;;;1.67;;
51907;SDS011;39320;53.214;6.556;2022-09-09T18:39:06;2.08;;;1.88;;
51907;SDS011;39320;53.214;6.556;2022-09-09T18:41:33;2.72;;;1.60;;
51907;SDS011;39320;53.214;6.556;2022-09-09T18:44:05;2.92;;;1.80;;
51907;SDS011;39320;53.214;6.556;2022-09-09T18:46:34;3.92;;;1.70;;
51907;SDS011;39320;53.214;6.556;2022-09-09T18:49:02;3.53;;;1.83;;
51907;SDS011;39320;53.214;6.556;2022-09-09T18:51:29;5.65;;;1.90;;
51907;SDS011;39320;53.214;6.556;2022-09-09T18:53:59;4.97;;;1.98;;
51907;SDS011;39320;53.214;6.556;2022-09-09T18:56:27;3.22;;;2.08;;
51907;SDS011;39320;53.214;6.556;2022-09-09T18:58:54;3.17;;;1.67;;
51907;SDS011;39320;53.214;6.556;2022-09-09T19:01:22;3.35;;;1.88;;
51907;SDS011;39320;53.214;6.556;2022-09-09T19:03:49;4.43;;;1.90;;
51907;SDS011;39320;53.214;6.556;2022-09-09T19:06:17;3.05;;;1.73;;
51907;SDS011;39320;53.214;6.556;2022-09-09T19:08:45;4.35;;;2.30;;
51907;SDS011;39320;53.214;6.556;2022-09-09T19:11:13;3.58;;;1.73;;
51907;SDS011;39320;53.214;6.556;2022-09-09T19:13:43;4.07;;;1.90;;
51907;SDS011;39320;53.214;6.556;2022-09-09T19:16:14;2.72;;;1.75;;
51907;SDS011;39320;53.214;6.556;2022-09-09T19:18:41;2.88;;;1.60;;
51907;SDS011;39320;53.214;6.556;2022-09-09T19:21:11;2.65;;;1.60;;
51907;SDS011;39320;53.214;6.556;2022-09-09T19:23:41;3.00;;;1.42;;
51907;SDS011;39320;53.214;6.556;2022-09-09T19:26:07;3.58;;;1.88;;
51907;SDS011;39320;53.214;6.556;2022-09-09T19:28:33;3.95;;;1.85;;
51907;SDS011;39320;53.214;6.556;2022-09-09T19:31:03;4.75;;;2.03;;
51907;SDS011;39320;53.214;6.556;2022-09-09T19:33:30;5.03;;;1.85;;
51907;SDS011;39320;53.214;6.556;2022-09-09T19:35:58;4.55;;;2.13;;
51907;SDS011;39320;53.214;6.556;2022-09-09T19:38:32;3.90;;;2.08;;
51907;SDS011;39320;53.214;6.556;2022-09-09T19:41:02;4.00;;;1.70;;
51907;SDS011;39320;53.214;6.556;2022-09-09T19:43:33;3.35;;;1.50;;
51907;SDS011;39320;53.214;6.556;2022-09-09T19:45:59;3.45;;;1.88;;
51907;SDS011;39320;53.214;6.556;2022-09-09T19:48:31;2.65;;;1.70;;
51907;SDS011;39320;53.214;6.556;2022-09-09T19:51:02;3.70;;;1.70;;
51907;SDS011;39320;53.214;6.556;2022-09-09T19:53:29;5.60;;;1.60;;
51907;SDS011;39320;53.214;6.556;2022-09-09T19:55:56;2.97;;;1.80;;
51907;SDS011;39320;53.214;6.556;2022-09-09T19:58:22;4.20;;;1.95;;
51907;SDS011;39320;53.214;6.556;2022-09-09T20:00:48;2.92;;;1.77;;
51907;SDS011;39320;53.214;6.556;2022-09-09T20:03:14;5.78;;;2.47;;
51907;SDS011;39320;53.214;6.556;2022-09-09T20:05:40;2.75;;;1.95;;
51907;SDS011;39320;53.214;6.556;2022-09-09T20:08:06;4.00;;;2.05;;
51907;SDS011;39320;53.214;6.556;2022-09-09T20:10:31;3.90;;;2.35;;
51907;SDS011;39320;53.214;6.556;2022-09-09T20:12:57;4.97;;;2.00;;
51907;SDS011;39320;53.214;6.556;2022-09-09T20:15:24;3.35;;;2.47;;
51907;SDS011;39320;53.214;6.556;2022-09-09T20:17:50;4.10;;;1.95;;
51907;SDS011;39320;53.214;6.556;2022-09-09T20:20:16;3.22;;;2.22;;
51907;SDS011;39320;53.214;6.556;2022-09-09T20:22:43;3.92;;;2.03;;
51907;SDS011;39320;53.214;6.556;2022-09-09T20:25:09;5.35;;;2.53;;
51907;SDS011;39320;53.214;6.556;2022-09-09T20:27:35;4.00;;;2.47;;
51907;SDS011;39320;53.214;6.556;2022-09-09T20:30:00;6.43;;;2.75;;
51907;SDS011;39320;53.214;6.556;2022-09-09T20:32:26;3.25;;;2.00;;
51907;SDS011;39320;53.214;6.556;2022-09-09T20:34:53;5.53;;;3.08;;
51907;SDS011;39320;53.214;6.556;2022-09-09T20:37:19;2.72;;;2.30;;
51907;SDS011;39320;53.214;6.556;2022-09-09T20:39:45;5.53;;;2.50;;
51907;SDS011;39320;53.214;6.556;2022-09-09T20:42:11;4.00;;;2.78;;
51907;SDS011;39320;53.214;6.556;2022-09-09T20:44:36;4.80;;;2.67;;
51907;SDS011;39320;53.214;6.556;2022-09-09T20:47:02;4.25;;;2.75;;
51907;SDS011;39320;53.214;6.556;2022-09-09T20:49:30;3.33;;;2.65;;
51907;SDS011;39320;53.214;6.556;2022-09-09T20:51:59;3.67;;;2.80;;
51907;SDS011;39320;53.214;6.556;2022-09-09T20:54:26;4.80;;;2.78;;
51907;SDS011;39320;53.214;6.556;2022-09-09T20:56:54;4.25;;;2.78;;
51907;SDS011;39320;53.214;6.556;2022-09-09T20:59:24;7.05;;;3.75;;
51907;SDS011;39320;53.214;6.556;2022-09-09T21:01:52;4.82;;;3.10;;
51907;SDS011;39320;53.214;6.556;2022-09-09T21:04:19;4.63;;;2.90;;
51907;SDS011;39320;53.214;6.556;2022-09-09T21:06:46;3.22;;;2.38;;
51907;SDS011;39320;53.214;6.556;2022-09-09T21:09:14;4.20;;;3.08;;
51907;SDS011;39320;53.214;6.556;2022-09-09T21:11:40;6.00;;;3.53;;
51907;SDS011;39320;53.214;6.556;2022-09-09T21:14:06;4.22;;;3.00;;
51907;SDS011;39320;53.214;6.556;2022-09-09T21:16:32;5.78;;;3.70;;
51907;SDS011;39320;53.214;6.556;2022-09-09T21:18:57;5.97;;;3.60;;
51907;SDS011;39320;53.214;6.556;2022-09-09T21:21:24;3.70;;;3.28;;
51907;SDS011;39320;53.214;6.556;2022-09-09T21:23:52;4.05;;;3.42;;
51907;SDS011;39320;53.214;6.556;2022-09-09T21:26:21;5.00;;;3.47;;
51907;SDS011;39320;53.214;6.556;2022-09-09T21:28:47;4.20;;;3.50;;
51907;SDS011;39320;53.214;6.556;2022-09-09T21:31:14;5.88;;;3.35;;
51907;SDS011;39320;53.214;6.556;2022-09-09T21:33:41;5.88;;;3.70;;
51907;SDS011;39320;53.214;6.556;2022-09-09T21:36:07;5.00;;;3.33;;
51907;SDS011;39320;53.214;6.556;2022-09-09T21:38:35;3.90;;;3.53;;
51907;SDS011;39320;53.214;6.556;2022-09-09T21:41:04;6.30;;;3.42;;
51907;SDS011;39320;53.214;6.556;2022-09-09T21:43:32;6.03;;;3.25;;
51907;SDS011;39320;53.214;6.556;2022-09-09T21:45:58;5.68;;;3.50;;
51907;SDS011;39320;53.214;6.556;2022-09-09T21:48:24;5.45;;;3.35;;
51907;SDS011;39320;53.214;6.556;2022-09-09T21:50:52;5.18;;;3.88;;
51907;SDS011;39320;53.214;6.556;2022-09-09T21:53:18;5.70;;;3.35;;
51907;SDS011;39320;53.214;6.556;2022-09-09T21:55:45;6.22;;;3.95;;
51907;SDS011;39320;53.214;6.556;2022-09-09T21:58:15;6.53;;;3.70;;
51907;SDS011;39320;53.214;6.556;2022-09-09T22:00:46;5.88;;;3.65;;
51907;SDS011;39320;53.214;6.556;2022-09-09T22:03:12;5.53;;;3.40;;
51907;SDS011;39320;53.214;6.556;2022-09-09T22:05:39;4.35;;;3.42;;
51907;SDS011;39320;53.214;6.556;2022-09-09T22:08:10;6.03;;;3.67;;
51907;SDS011;39320;53.214;6.556;2022-09-09T22:10:38;5.10;;;3.88;;
51907;SDS011;39320;53.214;6.556;2022-09-09T22:13:05;6.60;;;4.18;;
51907;SDS011;39320;53.214;6.556;2022-09-09T22:15:32;4.60;;;4.10;;
51907;SDS011;39320;53.214;6.556;2022-09-09T22:18:02;5.63;;;4.47;;
51907;SDS011;39320;53.214;6.556;2022-09-09T22:20:31;6.18;;;4.53;;
51907;SDS011;39320;53.214;6.556;2022-09-09T22:22:59;7.85;;;4.28;;
51907;SDS011;39320;53.214;6.556;2022-09-09T22:25:25;8.43;;;4.72;;
51907;SDS011;39320;53.214;6.556;2022-09-09T22:27:51;6.93;;;4.45;;
51907;SDS011;39320;53.214;6.556;2022-09-09T22:30:17;5.60;;;4.30;;
51907;SDS011;39320;53.214;6.556;2022-09-09T22:32:44;6.80;;;4.50;;
51907;SDS011;39320;53.214;6.556;2022-09-09T22:35:09;5.65;;;4.43;;
51907;SDS011;39320;53.214;6.556;2022-09-09T22:37:36;6.05;;;4.50;;
51907;SDS011;39320;53.214;6.556;2022-09-09T22:40:03;6.65;;;4.43;;
51907;SDS011;39320;53.214;6.556;2022-09-09T22:42:29;6.07;;;4.85;;
51907;SDS011;39320;53.214;6.556;2022-09-09T22:44:55;6.97;;;5.00;;
51907;SDS011;39320;53.214;6.556;2022-09-09T22:47:21;6.03;;;4.85;;
51907;SDS011;39320;53.214;6.556;2022-09-09T22:49:47;7.53;;;4.65;;
51907;SDS011;39320;53.214;6.556;2022-09-09T22:52:12;8.25;;;5.40;;
51907;SDS011;39320;53.214;6.556;2022-09-09T22:54:40;6.78;;;4.55;;
51907;SDS011;39320;53.214;6.556;2022-09-09T22:57:06;6.45;;;4.90;;
51907;SDS011;39320;53.214;6.556;2022-09-09T22:59:33;7.07;;;4.90;;
51907;SDS011;39320;53.214;6.556;2022-09-09T23:02:00;6.63;;;5.07;;
51907;SDS011;39320;53.214;6.556;2022-09-09T23:04:26;6.82;;;5.78;;
51907;SDS011;39320;53.214;6.556;2022-09-09T23:06:52;5.82;;;4.50;;
51907;SDS011;39320;53.214;6.556;2022-09-09T23:09:18;5.93;;;5.00;;
51907;SDS011;39320;53.214;6.556;2022-09-09T23:11:43;6.55;;;5.32;;
51907;SDS011;39320;53.214;6.556;2022-09-09T23:14:11;6.13;;;4.95;;
51907;SDS011;39320;53.214;6.556;2022-09-09T23:16:39;6.32;;;5.35;;
51907;SDS011;39320;53.214;6.556;2022-09-09T23:19:08;6.70;;;5.50;;
51907;SDS011;39320;53.214;6.556;2022-09-09T23:21:36;8.48;;;5.85;;
51907;SDS011;39320;53.214;6.556;2022-09-09T23:24:04;7.82;;;5.65;;
51907;SDS011;39320;53.214;6.556;2022-09-09T23:26:31;7.35;;;6.13;;
51907;SDS011;39320;53.214;6.556;2022-09-09T23:28:59;7.72;;;5.20;;
51907;SDS011;39320;53.214;6.556;2022-09-09T23:31:28;7.63;;;5.63;;
51907;SDS011;39320;53.214;6.556;2022-09-09T23:33:57;8.52;;;6.28;;
51907;SDS011;39320;53.214;6.556;2022-09-09T23:36:24;7.93;;;6.57;;
51907;SDS011;39320;53.214;6.556;2022-09-09T23:38:53;7.75;;;6.00;;
51907;SDS011;39320;53.214;6.556;2022-09-09T23:41:20;9.05;;;6.57;;
51907;SDS011;39320;53.214;6.556;2022-09-09T23:43:47;7.03;;;5.40;;
51907;SDS011;39320;53.214;6.556;2022-09-09T23:46:14;7.85;;;5.82;;
51907;SDS011;39320;53.214;6.556;2022-09-09T23:48:41;8.38;;;5.93;;
51907;SDS011;39320;53.214;6.556;2022-09-09T23:51:08;8.05;;;6.32;;
51907;SDS011;39320;53.214;6.556;2022-09-09T23:53:37;7.30;;;5.90;;
51907;SDS011;39320;53.214;6.556;2022-09-09T23:56:04;8.20;;;7.10;;
51907;SDS011;39320;53.214;6.556;2022-09-09T23:58:31;9.18;;;6.10;;
